Time;durP1;ratioP1;P1;durP2;ratioP2;P2;SDS_P1;SDS_P2;PMS_P1;PMS_P2;Temp;Humidity;BMP_temperature;BMP_pressure;BME280_temperature;BME280_humidity;BME280_pressure;Samples;Min_cycle;Max_cycle;Signal;HPM_P1;HPM_P2
2024/02/15 00:01:23;;;;;;;25.63;17.38;;;11.30;67.90;;;;;;5092578;28;20032;-72
2024/02/15 00:03:49;;;;;;;30.45;17.45;;;11.20;68.00;;;;;;5092554;28;20028;-73
2024/02/15 00:06:15;;;;;;;24.27;16.52;;;11.20;68.10;;;;;;5092364;28;20513;-72
2024/02/15 00:08:40;;;;;;;25.63;17.95;;;11.10;67.90;;;;;;5093129;28;20062;-73
2024/02/15 00:11:08;;;;;;;25.70;16.92;;;11.10;68.00;;;;;;5093203;28;20051;-72
2024/02/15 00:13:34;;;;;;;22.90;16.88;;;11.00;67.70;;;;;;5092759;28;20030;-73
2024/02/15 00:16:00;;;;;;;24.63;17.00;;;10.90;67.70;;;;;;5092740;28;20044;-73
2024/02/15 00:18:26;;;;;;;25.25;15.90;;;10.90;67.70;;;;;;5092799;28;20415;-73
2024/02/15 00:20:52;;;;;;;23.40;15.80;;;10.90;67.50;;;;;;5092588;28;20036;-73
2024/02/15 00:23:18;;;;;;;23.27;15.52;;;10.90;68.00;;;;;;5092432;28;20153;-73
2024/02/15 00:25:44;;;;;;;22.00;14.52;;;10.80;67.20;;;;;;5092832;28;20064;-73
2024/02/15 00:28:12;;;;;;;23.05;14.50;;;10.80;67.00;;;;;;5092273;28;20032;-72
2024/02/15 00:30:38;;;;;;;22.27;13.70;;;10.70;66.90;;;;;;5092139;28;20029;-73
2024/02/15 00:33:04;;;;;;;22.00;13.88;;;10.70;66.70;;;;;;5092202;28;20043;-73
2024/02/15 00:35:29;;;;;;;22.27;14.00;;;10.70;66.70;;;;;;5092241;28;20081;-72
2024/02/15 00:37:55;;;;;;;19.10;13.50;;;10.70;66.40;;;;;;5092282;28;20025;-73
2024/02/15 00:40:21;;;;;;;18.40;12.65;;;10.60;66.50;;;;;;5092277;28;20493;-73
2024/02/15 00:42:47;;;;;;;18.45;13.30;;;10.60;66.60;;;;;;5092189;28;20028;-72
2024/02/15 00:45:12;;;;;;;20.65;13.07;;;10.60;66.70;;;;;;5074119;28;20068;-72
2024/02/15 00:47:41;;;;;;;20.63;12.60;;;10.60;66.50;;;;;;5092257;28;20554;-73
2024/02/15 00:50:10;;;;;;;18.88;11.35;;;10.50;66.40;;;;;;5092400;28;20062;-73
2024/02/15 00:52:36;;;;;;;17.92;12.40;;;10.50;66.50;;;;;;5076448;28;20039;-73
2024/02/15 00:55:02;;;;;;;18.83;12.82;;;10.40;66.40;;;;;;5096461;28;20032;-71
2024/02/15 00:57:28;;;;;;;19.88;12.30;;;10.40;66.40;;;;;;5096715;28;20027;-72
2024/02/15 00:59:53;;;;;;;20.20;13.05;;;10.40;66.40;;;;;;5096007;28;20057;-73
2024/02/15 01:02:19;;;;;;;22.40;12.27;;;10.50;66.60;;;;;;5096017;28;20389;-71
2024/02/15 01:04:46;;;;;;;19.58;12.02;;;10.50;66.40;;;;;;5096082;28;20134;-71
2024/02/15 01:07:11;;;;;;;18.30;11.75;;;10.50;66.30;;;;;;5095843;28;20468;-72
2024/02/15 01:09:37;;;;;;;21.08;12.55;;;10.40;66.30;;;;;;5096019;28;20158;-71
2024/02/15 01:12:03;;;;;;;19.35;11.43;;;10.40;66.20;;;;;;5095931;28;20052;-72
2024/02/15 01:14:30;;;;;;;17.38;11.18;;;10.30;66.00;;;;;;5095811;28;20024;-72
2024/02/15 01:16:56;;;;;;;17.70;10.77;;;10.30;66.20;;;;;;5095568;28;20028;-72
2024/02/15 01:19:22;;;;;;;16.13;9.88;;;10.20;66.00;;;;;;5095775;28;20030;-72
2024/02/15 01:21:48;;;;;;;16.08;10.95;;;10.20;65.90;;;;;;5095820;28;20392;-72
2024/02/15 01:24:13;;;;;;;17.38;10.23;;;10.20;65.90;;;;;;5095502;28;20036;-72
2024/02/15 01:26:39;;;;;;;16.10;10.38;;;10.20;65.80;;;;;;5095416;28;20444;-72
2024/02/15 01:29:05;;;;;;;15.25;10.15;;;10.20;65.90;;;;;;5095170;28;20032;-72
2024/02/15 01:31:31;;;;;;;17.90;9.88;;;10.20;65.90;;;;;;5077068;28;20465;-72
2024/02/15 01:33:57;;;;;;;17.23;10.88;;;10.20;65.80;;;;;;5095197;28;20077;-72
2024/02/15 01:36:23;;;;;;;17.70;11.00;;;10.20;65.80;;;;;;5095626;28;20032;-73
2024/02/15 01:38:48;;;;;;;13.85;9.95;;;10.20;65.60;;;;;;5077193;28;20032;-73
2024/02/15 01:41:14;;;;;;;16.30;10.48;;;10.10;65.80;;;;;;5095118;28;20032;-72
2024/02/15 01:43:47;;;;;;;21.35;11.18;;;10.10;66.00;;;;;;5095010;28;20092;-72
2024/02/15 01:46:14;;;;;;;15.68;10.00;;;10.00;66.00;;;;;;5095122;28;20040;-71
2024/02/15 01:48:41;;;;;;;16.58;10.90;;;10.00;66.00;;;;;;5095254;28;20028;-72
2024/02/15 01:51:09;;;;;;;19.02;10.65;;;10.00;66.20;;;;;;5094997;28;20434;-72
2024/02/15 01:53:35;;;;;;;16.90;10.80;;;10.00;66.10;;;;;;5095036;28;20024;-71
2024/02/15 01:56:02;;;;;;;17.52;10.70;;;10.00;66.10;;;;;;5095137;28;20059;-72
2024/02/15 01:58:28;;;;;;;14.70;10.50;;;10.00;66.00;;;;;;5094814;28;20480;-73
2024/02/15 02:00:56;;;;;;;17.63;10.88;;;10.00;65.90;;;;;;5094733;28;20032;-72
2024/02/15 02:03:22;;;;;;;14.88;10.35;;;10.00;66.00;;;;;;5094208;28;20044;-72
2024/02/15 02:05:48;;;;;;;20.05;10.40;;;10.00;66.10;;;;;;5094914;28;20036;-71
2024/02/15 02:08:13;;;;;;;17.63;11.10;;;9.90;67.20;;;;;;5095539;28;20036;-73
2024/02/15 02:10:39;;;;;;;15.35;10.98;;;10.00;66.10;;;;;;5095134;28;20036;-72
2024/02/15 02:13:05;;;;;;;18.60;10.73;;;10.00;66.30;;;;;;5076575;28;20032;-72
2024/02/15 02:15:32;;;;;;;14.65;10.75;;;10.00;66.20;;;;;;5094583;28;20454;-72
2024/02/15 02:17:59;;;;;;;16.42;11.10;;;10.00;66.20;;;;;;5076381;28;20128;-72
2024/02/15 02:20:28;;;;;;;18.63;10.85;;;10.00;66.30;;;;;;5094604;28;20501;-73
2024/02/15 02:23:18;;;;;;;17.75;11.73;;;10.00;66.10;;;;;;5094711;28;20032;-71
2024/02/15 02:25:45;;;;;;;16.35;10.15;;;10.00;66.00;;;;;;5094363;28;20405;-72
2024/02/15 02:28:12;;;;;;;17.40;10.90;;;9.90;67.20;;;;;;5094378;28;20093;-72
2024/02/15 02:30:41;;;;;;;14.98;10.07;;;9.80;67.10;;;;;;5093969;28;20086;-71
2024/02/15 02:33:22;;;;;;;22.83;11.60;;;9.80;67.20;;;;;;5094224;28;20020;-72
2024/02/15 02:35:48;;;;;;;18.85;12.18;;;9.70;67.00;;;;;;5094373;28;20035;-72
2024/02/15 02:38:14;;;;;;;17.90;12.05;;;9.70;67.40;;;;;;5094168;28;20431;-72
2024/02/15 02:40:41;;;;;;;18.85;11.38;;;9.80;67.60;;;;;;5076102;28;20226;-71
2024/02/15 02:43:07;;;;;;;16.80;11.60;;;9.70;67.40;;;;;;5094117;28;20035;-73
2024/02/15 02:45:33;;;;;;;17.13;10.88;;;9.80;67.50;;;;;;5094027;28;20115;-73
2024/02/15 02:47:58;;;;;;;19.05;11.65;;;9.80;67.30;;;;;;5094187;28;20119;-72
2024/02/15 02:50:24;;;;;;;17.27;10.88;;;9.80;67.10;;;;;;5093725;28;20028;-72
2024/02/15 02:52:50;;;;;;;16.55;11.05;;;9.80;67.00;;;;;;5093996;28;20497;-71
2024/02/15 02:55:17;;;;;;;18.85;12.00;;;9.80;66.90;;;;;;5094038;28;20060;-72
2024/02/15 02:57:43;;;;;;;16.25;11.43;;;9.70;66.80;;;;;;5094095;28;20028;-73
2024/02/15 03:00:12;;;;;;;17.35;11.13;;;9.70;66.90;;;;;;5093371;28;20040;-72
2024/02/15 03:02:45;;;;;;;18.42;11.38;;;9.70;67.00;;;;;;5093839;28;20024;-72
2024/02/15 03:05:13;;;;;;;;;;;9.70;67.20;;;;;;5093999;28;20519;-72
2024/02/15 03:07:40;;;;;;;18.40;11.10;;;9.70;67.10;;;;;;5093524;28;19919;-72
2024/02/15 03:10:10;;;;;;;18.30;11.05;;;9.60;67.00;;;;;;5093864;28;20085;-72
2024/02/15 03:12:39;;;;;;;16.10;10.98;;;9.60;67.20;;;;;;5093861;28;20071;-72
2024/02/15 03:15:11;;;;;;;14.80;9.73;;;9.50;67.00;;;;;;5092641;28;20036;-71
2024/02/15 03:17:44;;;;;;;14.75;10.70;;;9.60;67.00;;;;;;5093900;28;20094;-72
2024/02/15 03:20:20;;;;;;;16.67;10.75;;;9.60;66.80;;;;;;5093539;28;20036;-72
2024/02/15 03:22:55;;;;;;;18.70;9.88;;;9.60;67.20;;;;;;5093490;28;20032;-70
2024/02/15 03:25:25;;;;;;;16.52;11.35;;;9.60;67.00;;;;;;5093127;28;20036;-72
2024/02/15 03:27:54;;;;;;;13.85;10.38;;;9.60;67.20;;;;;;5093506;28;20048;-72
2024/02/15 03:30:21;;;;;;;16.00;10.98;;;9.50;67.40;;;;;;5093727;28;20032;-73
2024/02/15 03:32:53;;;;;;;16.15;11.55;;;9.60;67.30;;;;;;5093346;28;20085;-73
2024/02/15 03:35:22;;;;;;;15.70;10.75;;;9.50;67.30;;;;;;5093324;28;20164;-72
2024/02/15 03:37:50;;;;;;;16.17;10.52;;;9.60;67.50;;;;;;5093101;28;20028;-72
2024/02/15 03:40:17;;;;;;;16.52;10.35;;;9.60;67.50;;;;;;5093234;28;20038;-73
2024/02/15 03:42:43;;;;;;;15.23;10.65;;;9.50;67.30;;;;;;5092941;28;20489;-72
2024/02/15 03:45:10;;;;;;;15.18;10.00;;;9.50;67.50;;;;;;5093063;28;20067;-73
2024/02/15 03:47:36;;;;;;;15.77;10.07;;;9.50;67.60;;;;;;5093035;28;20138;-73
2024/02/15 03:50:09;;;;;;;15.05;10.02;;;9.40;67.50;;;;;;5092807;28;20051;-72
2024/02/15 03:52:35;;;;;;;16.67;11.27;;;9.40;67.60;;;;;;5092932;28;20046;-71
2024/02/15 03:55:01;;;;;;;17.15;10.18;;;9.40;67.70;;;;;;5093060;28;20377;-72
2024/02/15 03:57:28;;;;;;;14.35;9.60;;;9.40;67.80;;;;;;5093291;28;20389;-71
2024/02/15 03:59:56;;;;;;;13.05;9.40;;;9.30;67.70;;;;;;5092687;28;20556;-72
2024/02/15 04:02:23;;;;;;;15.68;9.85;;;9.30;67.80;;;;;;5092693;28;20051;-72
2024/02/15 04:04:52;;;;;;;13.35;9.60;;;9.30;67.90;;;;;;5093085;28;20037;-73
2024/02/15 04:07:19;;;;;;;21.15;10.00;;;9.30;67.90;;;;;;5092588;28;20153;-71
2024/02/15 04:09:45;;;;;;;14.25;8.98;;;9.30;67.90;;;;;;5093715;28;20032;-74
2024/02/15 04:12:11;;;;;;;16.13;9.45;;;9.30;67.90;;;;;;5093777;28;20040;-73
2024/02/15 04:14:40;;;;;;;14.10;9.55;;;9.30;68.00;;;;;;5093349;28;20040;-72
2024/02/15 04:17:06;;;;;;;13.05;8.35;;;9.30;67.80;;;;;;5092799;28;20073;-73
2024/02/15 04:19:32;;;;;;;14.07;9.20;;;9.30;67.80;;;;;;5092797;28;20028;-72
2024/02/15 04:21:59;;;;;;;13.10;8.85;;;9.30;67.80;;;;;;5092436;28;20108;-74
2024/02/15 04:24:26;;;;;;;12.52;8.88;;;9.30;67.80;;;;;;5092727;28;20030;-71
2024/02/15 04:26:51;;;;;;;12.90;8.60;;;9.30;67.80;;;;;;5092003;28;20409;-71
2024/02/15 04:29:20;;;;;;;15.55;9.10;;;9.30;67.80;;;;;;5092620;28;20028;-72
2024/02/15 04:31:50;;;;;;;13.65;8.30;;;9.20;67.90;;;;;;5092594;28;20040;-72
2024/02/15 04:34:16;;;;;;;14.07;8.80;;;9.30;67.80;;;;;;5092322;28;20028;-71
2024/02/15 04:36:49;;;;;;;13.75;8.63;;;9.30;67.80;;;;;;5092501;28;20036;-72
2024/02/15 04:39:23;;;;;;;12.88;8.98;;;9.30;67.70;;;;;;5092424;28;20032;-72
2024/02/15 04:41:52;;;;;;;12.70;8.98;;;9.30;67.90;;;;;;5092092;28;20101;-71
2024/02/15 04:44:20;;;;;;;12.63;9.13;;;9.20;67.50;;;;;;5092293;28;20083;-72
2024/02/15 04:46:46;;;;;;;13.05;8.75;;;9.20;67.60;;;;;;5092063;28;20496;-72
2024/02/15 04:49:15;;;;;;;15.00;8.52;;;9.20;67.80;;;;;;5091978;28;20119;-72
2024/02/15 04:51:41;;;;;;;13.38;8.77;;;9.20;68.00;;;;;;5092158;28;20039;-73
2024/02/15 04:54:13;;;;;;;17.45;8.65;;;9.20;67.90;;;;;;5091947;28;20040;-73
2024/02/15 04:56:42;;;;;;;13.60;8.70;;;9.20;68.00;;;;;;5074128;28;20040;-72
2024/02/15 22:59:55;;;;;;;39.05;27.38;;;11.90;76.40;;;;;;5065610;22;20067;-80
2024/02/15 23:02:21;;;;;;;39.20;28.77;;;11.90;75.70;;;;;;5036900;28;20580;-81
2024/02/15 23:04:47;;;;;;;38.35;27.98;;;11.80;75.30;;;;;;5055135;28;20060;-80
2024/02/15 23:07:13;;;;;;;40.30;28.25;;;11.70;75.20;;;;;;5055842;28;20033;-79
2024/02/15 23:09:39;;;;;;;36.88;27.25;;;11.70;75.20;;;;;;5036830;28;20083;-80
2024/02/15 23:12:05;;;;;;;39.83;27.75;;;11.70;75.10;;;;;;5054066;28;20033;-79
2024/02/15 23:14:30;;;;;;;39.88;27.27;;;11.80;75.10;;;;;;5054023;28;20029;-79
2024/02/15 23:16:56;;;;;;;38.85;26.05;;;11.80;75.00;;;;;;5054182;28;20072;-78
2024/02/15 23:19:23;;;;;;;35.30;24.73;;;11.70;75.10;;;;;;5053572;28;20104;-80
2024/02/15 23:21:49;;;;;;;32.10;23.95;;;11.70;75.10;;;;;;5054179;28;20029;-79
2024/02/15 23:24:15;;;;;;;39.33;26.00;;;11.70;75.30;;;;;;5053657;28;20436;-80
2024/02/15 23:26:40;;;;;;;34.40;23.98;;;11.70;75.10;;;;;;5054182;28;20029;-80
2024/02/15 23:29:06;;;;;;;32.70;23.52;;;11.70;75.30;;;;;;5053673;28;20402;-79
2024/02/15 23:31:32;;;;;;;31.48;22.45;;;11.60;75.40;;;;;;5052802;28;20036;-79
2024/02/15 23:33:58;;;;;;;34.42;22.98;;;11.60;75.50;;;;;;5053619;28;20390;-79
2024/02/15 23:41:53;;;;;;;32.72;23.42;;;11.70;75.70;;;;;;5053533;28;20565;-79
2024/02/15 23:44:32;;;;;;;34.17;23.52;;;11.70;75.30;;;;;;5054181;28;20057;-78
2024/02/15 23:46:59;;;;;;;32.60;22.55;;;11.70;75.40;;;;;;5054060;28;20041;-78
2024/02/15 23:49:25;;;;;;;32.65;22.60;;;11.70;75.10;;;;;;5035704;28;20037;-77
2024/02/15 23:51:50;;;;;;;32.47;22.35;;;11.70;75.30;;;;;;5054465;28;20525;-78
2024/02/15 23:54:16;;;;;;;29.83;21.98;;;11.70;75.10;;;;;;5054649;28;20040;-78
2024/02/15 23:56:41;;;;;;;31.42;21.58;;;11.60;75.20;;;;;;5053885;28;20087;-78
2024/02/15 23:59:07;;;;;;;31.88;21.20;;;11.60;75.10;;;;;;5053264;28;20081;-79
